Time;durP1;ratioP1;P1;durP2;ratioP2;P2;SDS_P1;SDS_P2;PMS_P1;PMS_P2;Temp;Humidity;BMP_temperature;BMP_pressure;BME280_temperature;BME280_humidity;BME280_pressure;Samples;Min_cycle;Max_cycle;Signal;HPM_P1;HPM_P2
2021/01/08 00:01:41;;;;;;;30.73;15.90;;;4.00;65.70;;;;;;4886682;28;87087;-76
2021/01/08 00:04:08;;;;;;;30.23;15.47;;;4.00;65.80;;;;;;4901168;28;91287;-75
2021/01/08 00:06:35;;;;;;;26.43;15.70;;;4.00;65.80;;;;;;4870042;28;90728;-76
2021/01/08 00:09:00;;;;;;;26.83;15.13;;;4.00;65.50;;;;;;4901530;28;87733;-75
2021/01/08 00:11:26;;;;;;;22.80;12.70;;;4.00;66.00;;;;;;4869166;28;87477;-75
2021/01/08 00:13:53;;;;;;;22.47;13.27;;;4.00;65.70;;;;;;4901421;28;90455;-76
2021/01/08 00:16:19;;;;;;;19.73;12.60;;;3.90;65.80;;;;;;4902248;28;88260;-75
2021/01/08 00:18:46;;;;;;;17.83;11.87;;;3.90;66.10;;;;;;4869885;28;86913;-75
2021/01/08 00:21:12;;;;;;;18.30;12.00;;;3.90;66.10;;;;;;4869081;28;87096;-76
2021/01/08 00:23:38;;;;;;;19.43;12.33;;;3.90;66.00;;;;;;4869782;28;91339;-76
2021/01/08 00:26:04;;;;;;;21.70;12.40;;;3.90;66.20;;;;;;4902371;28;87857;-75
2021/01/08 00:28:30;;;;;;;19.30;12.37;;;3.90;65.70;;;;;;4885816;28;87145;-76
2021/01/08 00:30:56;;;;;;;23.03;14.43;;;3.90;65.90;;;;;;4902752;28;87392;-76
2021/01/08 00:33:22;;;;;;;22.70;13.73;;;4.00;65.90;;;;;;4899846;28;91372;-75
2021/01/08 00:35:47;;;;;;;19.23;12.33;;;4.00;65.50;;;;;;4885694;28;88978;-75
2021/01/08 00:38:13;;;;;;;19.03;12.60;;;4.00;65.20;;;;;;4901882;28;87308;-75
2021/01/08 00:40:39;;;;;;;21.53;13.13;;;4.00;65.60;;;;;;4901368;28;87345;-75
2021/01/08 00:43:06;;;;;;;19.87;13.00;;;4.00;65.70;;;;;;4884544;28;90199;-75
2021/01/08 00:45:32;;;;;;;21.27;14.20;;;4.00;66.00;;;;;;4904592;28;88057;-76
2021/01/08 00:47:58;;;;;;;21.37;13.47;;;4.00;65.90;;;;;;4888854;28;87035;-76
2021/01/08 00:50:24;;;;;;;21.07;13.00;;;4.00;65.90;;;;;;4904218;28;87882;-75
2021/01/08 00:52:50;;;;;;;21.03;14.10;;;4.00;65.70;;;;;;4904252;28;91569;-75
2021/01/08 00:55:17;;;;;;;19.93;13.10;;;4.00;65.70;;;;;;4887827;28;91234;-76
2021/01/08 00:57:53;;;;;;;19.73;13.20;;;4.10;65.30;;;;;;4887970;28;87967;-75
2021/01/08 01:00:19;;;;;;;17.90;11.87;;;4.00;65.30;;;;;;4886971;28;87728;-76
2021/01/08 01:02:45;;;;;;;18.97;13.07;;;4.00;65.60;;;;;;4905871;28;88243;-76
2021/01/08 01:05:11;;;;;;;20.27;12.80;;;4.00;65.80;;;;;;4871818;28;90969;-75
2021/01/08 01:07:36;;;;;;;21.07;13.53;;;4.00;65.80;;;;;;4904281;28;87066;-75
2021/01/08 01:10:03;;;;;;;19.60;12.77;;;4.00;66.10;;;;;;4905094;28;87089;-75
2021/01/08 01:12:29;;;;;;;19.47;12.70;;;4.00;66.10;;;;;;4904099;28;91854;-75
2021/01/08 01:14:55;;;;;;;23.43;15.17;;;4.00;66.40;;;;;;4906165;28;87621;-75
2021/01/08 01:17:20;;;;;;;22.17;14.43;;;4.00;66.70;;;;;;4888068;28;86975;-76
2021/01/08 01:19:46;;;;;;;20.37;12.53;;;3.90;67.20;;;;;;4888474;28;87101;-76
2021/01/08 01:22:12;;;;;;;21.43;13.80;;;3.80;67.40;;;;;;4886798;28;92452;-75
2021/01/08 01:24:38;;;;;;;19.00;12.70;;;3.80;68.00;;;;;;4888365;28;88934;-76
2021/01/08 01:27:04;;;;;;;20.73;12.90;;;3.70;68.40;;;;;;4903544;28;86988;-75
2021/01/08 01:29:29;;;;;;;19.93;12.80;;;3.70;69.00;;;;;;4905146;28;86971;-76
2021/01/08 01:31:55;;;;;;;23.17;11.93;;;3.70;69.20;;;;;;4872040;28;91205;-76
2021/01/08 01:34:22;;;;;;;17.70;12.63;;;3.70;69.20;;;;;;4903292;28;91029;-75
2021/01/08 01:36:48;;;;;;;17.47;11.10;;;3.70;69.40;;;;;;4872183;28;86898;-75
2021/01/08 01:39:14;;;;;;;20.77;13.13;;;3.70;69.10;;;;;;4887765;28;86349;-76
2021/01/08 01:41:42;;;;;;;19.87;12.37;;;3.70;69.20;;;;;;4872055;28;90157;-76
2021/01/08 01:44:08;;;;;;;19.17;11.83;;;3.80;69.70;;;;;;4887000;28;91831;-75
2021/01/08 01:46:34;;;;;;;19.87;12.27;;;3.80;69.40;;;;;;4887787;28;87690;-76
2021/01/08 01:49:00;;;;;;;20.10;12.77;;;3.70;69.90;;;;;;4888039;28;87087;-76
2021/01/08 01:51:26;;;;;;;19.83;13.37;;;3.70;70.20;;;;;;4870459;28;91306;-75
2021/01/08 01:53:52;;;;;;;25.53;13.73;;;3.60;70.80;;;;;;4888108;28;91259;-76
2021/01/08 01:56:18;;;;;;;21.17;12.77;;;3.50;71.50;;;;;;4904802;28;87511;-75
2021/01/08 01:58:44;;;;;;;22.53;12.97;;;3.50;72.00;;;;;;4906131;28;87282;-75
2021/01/08 02:01:10;;;;;;;20.43;12.93;;;3.50;72.10;;;;;;4886575;28;91483;-76
2021/01/08 02:03:37;;;;;;;21.77;14.03;;;3.50;72.20;;;;;;4871930;28;91325;-75
2021/01/08 02:06:08;;;;;;;23.30;14.30;;;3.50;72.50;;;;;;4904302;28;87631;-75
2021/01/08 02:08:37;;;;;;;22.87;14.03;;;3.40;72.60;;;;;;4871649;28;86875;-76
2021/01/08 02:11:08;;;;;;;22.67;14.60;;;3.50;72.60;;;;;;4902508;28;89212;-76
2021/01/08 02:13:41;;;;;;;23.00;14.37;;;3.40;72.50;;;;;;4887686;28;87279;-75
2021/01/08 02:16:09;;;;;;;22.03;13.60;;;3.50;72.90;;;;;;4904510;28;87032;-75
2021/01/08 02:18:36;;;;;;;25.80;15.27;;;3.50;72.70;;;;;;4871468;28;87006;-75
2021/01/08 02:21:07;;;;;;;23.30;14.37;;;3.50;73.10;;;;;;4904482;28;88200;-75
2021/01/08 02:23:59;;;;;;;25.93;16.63;;;3.50;72.10;;;;;;4886858;28;91440;-75
2021/01/08 02:26:25;;;;;;;27.63;15.98;;;3.60;71.80;;;;;;4870524;28;87622;-75
2021/01/08 02:28:52;;;;;;;27.87;17.07;;;3.60;71.60;;;;;;4871644;28;87899;-76
2021/01/08 02:31:18;;;;;;;28.77;16.97;;;3.60;71.60;;;;;;4902193;28;88178;-75
2021/01/08 02:33:44;;;;;;;27.97;16.87;;;3.60;71.40;;;;;;4887043;28;87844;-75
2021/01/08 02:36:11;;;;;;;27.57;16.87;;;3.60;71.40;;;;;;4903164;28;87757;-75
2021/01/08 02:38:38;;;;;;;29.77;17.10;;;3.50;71.50;;;;;;4904322;28;87095;-76
2021/01/08 02:41:06;;;;;;;27.87;18.63;;;3.50;71.60;;;;;;4886264;28;91829;-76
2021/01/08 02:43:34;;;;;;;26.47;16.70;;;3.50;71.90;;;;;;4886146;28;88044;-75
2021/01/08 02:46:00;;;;;;;29.60;18.07;;;3.50;72.10;;;;;;4886801;28;86913;-76
2021/01/08 02:48:27;;;;;;;29.00;16.80;;;3.50;71.70;;;;;;4902209;28;87366;-75
2021/01/08 02:50:53;;;;;;;28.13;17.37;;;3.50;71.70;;;;;;4902544;28;90830;-75
2021/01/08 02:53:22;;;;;;;27.93;16.43;;;3.50;71.70;;;;;;4886134;28;91288;-75
2021/01/08 02:55:57;;;;;;;28.47;17.80;;;3.50;72.00;;;;;;4886890;28;86943;-76
2021/01/08 02:58:24;;;;;;;25.83;16.30;;;3.50;72.10;;;;;;4903261;28;87257;-75
2021/01/08 03:00:52;;;;;;;25.80;15.97;;;3.50;72.30;;;;;;4902169;28;89283;-76
2021/01/08 03:03:18;;;;;;;29.70;17.43;;;3.50;72.00;;;;;;4869942;28;91902;-75
2021/01/08 03:05:44;;;;;;;26.00;16.50;;;3.50;72.30;;;;;;4886766;28;86799;-75
2021/01/08 03:08:10;;;;;;;29.77;17.33;;;3.50;72.40;;;;;;4885625;28;87346;-75
2021/01/08 03:10:36;;;;;;;27.23;16.57;;;3.60;72.10;;;;;;4901880;28;89122;-75
2021/01/08 03:13:07;;;;;;;26.97;16.50;;;3.50;72.40;;;;;;4886638;28;87685;-76
2021/01/08 03:15:33;;;;;;;28.85;16.48;;;3.50;72.80;;;;;;4869973;28;86923;-76
2021/01/08 03:17:59;;;;;;;29.37;16.13;;;3.50;72.80;;;;;;4887161;28;86340;-76
2021/01/08 03:20:25;;;;;;;29.23;17.10;;;3.50;73.30;;;;;;4902841;28;87599;-75
2021/01/08 03:22:51;;;;;;;22.53;15.27;;;3.50;73.10;;;;;;4903623;28;87976;-76
2021/01/08 03:25:17;;;;;;;26.33;17.10;;;3.40;73.60;;;;;;4885253;28;87936;-75
2021/01/08 03:27:43;;;;;;;31.77;17.90;;;3.40;74.10;;;;;;4902105;28;87827;-75
2021/01/08 03:30:10;;;;;;;36.87;18.03;;;3.30;74.30;;;;;;4903256;28;87487;-76
2021/01/08 03:32:36;;;;;;;26.03;16.67;;;3.40;74.30;;;;;;4902673;28;88180;-76
2021/01/08 03:35:03;;;;;;;25.63;16.93;;;3.40;74.50;;;;;;4886390;28;87066;-76
2021/01/08 03:37:30;;;;;;;28.73;17.77;;;3.40;74.40;;;;;;4902497;28;87129;-75
2021/01/08 03:39:56;;;;;;;30.90;17.90;;;3.40;74.60;;;;;;4885885;28;91480;-76
2021/01/08 03:42:21;;;;;;;27.90;17.63;;;3.30;74.80;;;;;;4876274;28;88490;-75
2021/01/08 03:44:47;;;;;;;26.47;16.87;;;3.30;75.00;;;;;;4867834;28;87411;-76
2021/01/08 03:47:13;;;;;;;26.57;17.13;;;3.30;74.80;;;;;;4885961;28;87453;-75
2021/01/08 03:49:39;;;;;;;30.37;18.17;;;3.30;74.70;;;;;;4902416;28;89836;-75
2021/01/08 03:52:09;;;;;;;27.20;17.50;;;3.30;74.80;;;;;;4901810;28;91902;-75
2021/01/08 03:54:35;;;;;;;27.87;17.67;;;3.30;75.20;;;;;;4901148;28;86979;-75
2021/01/08 03:57:02;;;;;;;29.27;17.57;;;3.20;75.50;;;;;;4870129;28;87826;-75
2021/01/08 03:59:28;;;;;;;26.67;17.17;;;3.20;75.50;;;;;;4900789;28;91810;-75
2021/01/08 04:01:54;;;;;;;29.83;17.00;;;3.20;75.20;;;;;;4869804;28;90739;-76
2021/01/08 04:04:19;;;;;;;29.37;17.23;;;3.30;75.10;;;;;;4869277;28;86902;-75
2021/01/08 04:06:45;;;;;;;25.57;17.17;;;3.30;75.00;;;;;;4903714;28;86120;-76
2021/01/08 04:09:11;;;;;;;29.60;18.33;;;3.20;75.30;;;;;;4902795;28;88160;-76
2021/01/08 04:11:37;;;;;;;27.73;17.23;;;3.30;75.40;;;;;;4885232;28;89834;-75
2021/01/08 04:14:03;;;;;;;27.30;17.10;;;3.20;75.50;;;;;;4905317;28;87688;-76
2021/01/08 04:16:36;;;;;;;26.20;17.37;;;3.20;75.70;;;;;;4905290;28;87366;-76
2021/01/08 04:19:02;;;;;;;32.00;19.07;;;3.30;75.50;;;;;;4902160;28;90611;-75
2021/01/08 04:21:28;;;;;;;26.80;16.17;;;3.20;75.80;;;;;;4903401;28;90981;-75
2021/01/08 04:23:55;;;;;;;28.63;17.47;;;3.20;76.00;;;;;;4873016;28;87089;-75
2021/01/08 04:26:20;;;;;;;24.50;16.90;;;3.20;76.00;;;;;;4888006;28;88247;-75
2021/01/08 04:28:46;;;;;;;25.97;16.67;;;3.10;76.20;;;;;;4906147;28;87993;-76
2021/01/08 04:31:13;;;;;;;31.13;18.30;;;3.20;76.20;;;;;;4906394;28;87370;-76
2021/01/08 04:33:40;;;;;;;25.70;17.20;;;3.20;75.90;;;;;;4904134;28;86965;-76
2021/01/08 04:36:08;;;;;;;28.67;17.40;;;3.30;75.80;;;;;;4888999;28;87105;-75
2021/01/08 04:38:34;;;;;;;26.93;17.37;;;3.40;75.30;;;;;;4904575;28;89213;-75
2021/01/08 04:41:00;;;;;;;27.27;17.73;;;3.30;75.10;;;;;;4888248;28;90998;-76
2021/01/08 04:43:27;;;;;;;27.13;17.30;;;3.30;75.40;;;;;;4905154;28;87216;-75
2021/01/08 04:45:52;;;;;;;24.50;16.13;;;3.30;75.40;;;;;;4904534;28;87116;-75
2021/01/08 04:48:18;;;;;;;31.30;18.10;;;3.30;75.50;;;;;;4903810;28;92004;-75
2021/01/08 04:50:45;;;;;;;28.43;17.77;;;3.30;75.60;;;;;;4904286;28;88500;-75
2021/01/08 04:53:12;;;;;;;28.90;19.33;;;3.20;75.20;;;;;;4904615;28;86880;-75
2021/01/08 04:55:38;;;;;;;29.53;18.20;;;3.20;75.60;;;;;;4872222;28;86798;-75
2021/01/08 04:58:08;;;;;;;32.33;20.10;;;3.20;76.00;;;;;;4905688;28;87808;-75
2021/01/08 05:00:35;;;;;;;33.33;17.43;;;3.20;75.60;;;;;;4903394;28;91908;-75
2021/01/08 05:03:02;;;;;;;28.90;18.80;;;3.20;75.50;;;;;;4905347;28;87827;-75
2021/01/08 05:05:27;;;;;;;29.20;18.13;;;3.20;75.70;;;;;;4888041;28;86849;-75
2021/01/08 05:07:53;;;;;;;28.73;17.37;;;3.20;75.30;;;;;;4888572;28;87783;-75
2021/01/08 05:10:19;;;;;;;30.87;19.53;;;3.20;75.60;;;;;;4886513;28;90978;-75
2021/01/08 05:12:48;;;;;;;30.00;18.83;;;3.10;76.00;;;;;;4888332;28;86958;-75
2021/01/08 05:15:15;;;;;;;29.63;18.70;;;3.20;75.80;;;;;;4905476;28;86999;-75
2021/01/08 05:17:41;;;;;;;30.73;16.80;;;3.20;75.90;;;;;;4904762;28;87645;-75
2021/01/08 05:20:08;;;;;;;25.93;17.27;;;3.20;76.00;;;;;;4872578;28;90280;-76
2021/01/08 05:22:34;;;;;;;29.67;18.93;;;3.10;75.90;;;;;;4887133;28;87627;-75
2021/01/08 05:25:05;;;;;;;28.40;19.73;;;3.10;76.00;;;;;;4887848;28;87625;-76
2021/01/08 05:27:30;;;;;;;29.73;18.43;;;3.10;76.20;;;;;;4870537;28;92631;-75
2021/01/08 05:30:03;;;;;;;27.23;18.57;;;3.10;76.50;;;;;;4871633;28;91745;-76
2021/01/08 05:32:31;;;;;;;30.37;18.90;;;3.10;76.60;;;;;;4903128;28;86997;-75
2021/01/08 05:34:57;;;;;;;28.47;18.37;;;3.10;76.80;;;;;;4903908;28;87232;-75
2021/01/08 05:37:23;;;;;;;28.70;19.20;;;3.20;76.60;;;;;;4904704;28;87721;-75
2021/01/08 05:39:49;;;;;;;29.63;18.70;;;3.10;76.80;;;;;;4903356;28;91522;-75
2021/01/08 05:42:15;;;;;;;30.53;18.80;;;3.10;77.00;;;;;;4903726;28;87544;-75
2021/01/08 05:44:45;;;;;;;30.03;18.57;;;3.20;76.80;;;;;;4887305;28;87299;-75
2021/01/08 05:47:11;;;;;;;32.43;19.87;;;3.20;76.90;;;;;;4903346;28;91017;-76
2021/01/08 05:49:38;;;;;;;28.60;18.90;;;3.20;76.80;;;;;;4902687;28;90975;-76
2021/01/08 05:52:04;;;;;;;25.67;17.93;;;3.20;77.00;;;;;;4903115;28;87794;-75
2021/01/08 05:54:32;;;;;;;30.50;19.17;;;3.20;77.10;;;;;;4887001;28;87702;-75
2021/01/08 05:56:58;;;;;;;29.87;19.53;;;3.10;77.10;;;;;;4871628;28;91070;-75
2021/01/08 05:59:26;;;;;;;29.67;20.17;;;3.20;77.00;;;;;;4870730;28;91780;-75
2021/01/08 06:01:55;;;;;;;33.53;20.57;;;3.20;77.60;;;;;;4904684;28;86841;-75
2021/01/08 06:04:21;;;;;;;30.87;19.83;;;3.10;77.10;;;;;;4904694;28;87070;-75
2021/01/08 06:06:46;;;;;;;29.60;19.03;;;3.10;77.20;;;;;;4886406;28;90864;-75
2021/01/08 06:09:14;;;;;;;29.37;18.77;;;3.20;77.00;;;;;;4870971;28;91484;-75
2021/01/08 06:11:45;;;;;;;32.93;20.17;;;3.10;77.00;;;;;;4887129;28;87488;-75
2021/01/08 06:14:16;;;;;;;30.52;20.75;;;3.10;77.10;;;;;;4887358;28;88032;-75
2021/01/08 06:16:47;;;;;;;33.03;20.15;;;3.10;77.10;;;;;;4901956;28;91954;-75
2021/01/08 06:19:14;;;;;;;34.53;20.70;;;3.10;77.20;;;;;;4904523;28;87114;-75
2021/01/08 06:21:45;;;;;;;33.47;20.07;;;3.00;77.20;;;;;;4886878;28;87429;-75
2021/01/08 06:24:13;;;;;;;30.53;20.47;;;3.00;77.30;;;;;;4902972;28;87095;-75
2021/01/08 06:26:41;;;;;;;31.93;19.83;;;3.10;77.60;;;;;;4886141;28;91546;-75
2021/01/08 06:29:17;;;;;;;32.47;20.47;;;3.00;77.40;;;;;;4905002;28;87999;-76
2021/01/08 06:31:51;;;;;;;36.70;20.87;;;3.00;77.30;;;;;;4906309;28;87351;-76
2021/01/08 06:34:27;;;;;;;30.47;20.20;;;3.00;77.30;;;;;;4906361;28;87922;-77
2021/01/08 06:37:08;;;;;;;33.13;21.70;;;3.00;77.50;;;;;;4887093;28;92252;-76
2021/01/08 06:39:39;;;;;;;30.03;21.03;;;3.00;77.60;;;;;;4886242;28;87904;-75
2021/01/08 06:42:05;;;;;;;33.80;20.93;;;3.00;77.40;;;;;;4886099;28;88132;-76
2021/01/08 06:44:32;;;;;;;35.73;20.67;;;3.00;77.10;;;;;;4886406;28;87043;-75
2021/01/08 06:47:04;;;;;;;32.80;20.13;;;3.00;77.00;;;;;;4904095;28;87897;-75
2021/01/08 06:49:31;;;;;;;32.67;20.70;;;3.10;76.80;;;;;;4901761;28;90116;-75
2021/01/08 06:52:00;;;;;;;33.23;21.17;;;3.10;76.50;;;;;;4904491;28;86994;-76
2021/01/08 06:54:27;;;;;;;30.10;20.13;;;3.10;76.40;;;;;;4871329;28;87728;-76
2021/01/08 06:56:59;;;;;;;33.17;19.87;;;3.10;76.50;;;;;;4902531;28;91303;-75
2021/01/08 06:59:31;;;;;;;34.08;21.02;;;3.10;76.10;;;;;;4871143;28;91066;-76
2021/01/08 07:02:09;;;;;;;38.25;22.40;;;3.10;76.30;;;;;;4870900;28;87403;-75
2021/01/08 07:04:38;;;;;;;35.10;19.90;;;3.20;75.80;;;;;;4885630;28;87010;-75
2021/01/08 07:07:06;;;;;;;34.97;21.77;;;3.20;75.70;;;;;;4902928;28;89213;-75
2021/01/08 07:09:33;;;;;;;34.23;21.47;;;3.20;75.40;;;;;;4900900;28;92617;-75
2021/01/08 07:12:01;;;;;;;37.67;20.73;;;3.30;75.00;;;;;;4886866;28;87261;-75
2021/01/08 07:14:27;;;;;;;39.13;21.97;;;3.30;74.60;;;;;;4886510;28;87355;-76
2021/01/08 07:16:55;;;;;;;32.93;20.30;;;3.30;74.50;;;;;;4902921;28;88204;-76
2021/01/08 07:19:23;;;;;;;38.30;23.10;;;3.40;74.20;;;;;;4902134;28;88117;-76
2021/01/08 07:22:00;;;;;;;33.17;20.90;;;3.40;73.90;;;;;;4901879;28;86978;-76
2021/01/08 07:24:32;;;;;;;28.60;19.53;;;3.40;73.30;;;;;;4870948;28;88172;-75
2021/01/08 07:27:26;;;;;;;29.23;18.37;;;3.40;73.10;;;;;;4903544;28;86995;-75
2021/01/08 07:30:03;;;;;;;34.93;19.23;;;3.50;72.30;;;;;;4869440;28;91130;-75
2021/01/08 07:32:49;;;;;;;35.63;21.23;;;3.50;72.20;;;;;;4869758;28;87932;-75
2021/01/08 07:35:21;;;;;;;30.60;17.87;;;3.50;72.10;;;;;;4902075;28;88086;-76
2021/01/08 07:38:06;;;;;;;30.52;20.33;;;3.60;71.60;;;;;;4885960;28;87693;-75
2021/01/08 07:40:35;;;;;;;29.10;19.23;;;3.60;71.70;;;;;;4869116;28;91000;-75
2021/01/08 07:43:10;;;;;;;29.27;18.83;;;3.60;71.30;;;;;;4886189;28;87059;-75
2021/01/08 07:45:59;;;;;;;34.87;19.17;;;3.70;71.10;;;;;;4902901;28;86791;-75
2021/01/08 07:48:34;;;;;;;29.70;17.70;;;3.70;70.40;;;;;;4885982;28;88250;-75
2021/01/08 07:51:02;;;;;;;29.90;18.27;;;3.80;69.20;;;;;;4903667;28;88432;-75
2021/01/08 07:53:44;;;;;;;25.03;16.73;;;3.90;69.00;;;;;;4870096;28;87458;-75
2021/01/08 07:56:23;;;;;;;28.10;17.65;;;3.90;68.60;;;;;;4902164;28;87235;-75
2021/01/08 07:58:54;;;;;;;26.40;17.37;;;4.00;68.20;;;;;;4902065;28;89126;-75
2021/01/08 08:01:20;;;;;;;28.88;17.95;;;4.00;68.10;;;;;;4869968;28;89852;-75
2021/01/08 08:04:03;;;;;;;25.73;17.67;;;4.00;67.70;;;;;;4901307;28;87677;-75
2021/01/08 08:06:33;;;;;;;28.63;17.40;;;4.00;68.00;;;;;;4886151;28;87060;-76
2021/01/08 08:09:01;;;;;;;28.57;17.87;;;4.00;67.70;;;;;;4869543;28;91817;-75
2021/01/08 08:11:29;;;;;;;30.23;17.70;;;4.00;68.20;;;;;;4901312;28;91386;-77
2021/01/08 08:13:55;;;;;;;24.07;17.20;;;4.10;67.50;;;;;;4901058;28;86949;-75
2021/01/08 08:16:37;;;;;;;26.23;16.83;;;4.10;67.70;;;;;;4886197;28;86439;-76
2021/01/08 08:19:04;;;;;;;25.58;16.83;;;4.10;67.70;;;;;;4903282;28;88092;-76
2021/01/08 08:21:30;;;;;;;28.47;17.43;;;4.30;67.50;;;;;;4901617;28;91962;-76
2021/01/08 08:23:57;;;;;;;29.40;17.93;;;4.40;67.10;;;;;;4902041;28;87913;-76
2021/01/08 08:26:24;;;;;;;26.77;17.63;;;4.50;66.60;;;;;;4901725;28;88261;-76
2021/01/08 08:29:04;;;;;;;29.93;19.73;;;4.60;66.30;;;;;;4902094;28;87747;-75
2021/01/08 08:31:32;;;;;;;26.27;16.03;;;4.90;65.30;;;;;;4901708;28;91310;-76
2021/01/08 08:33:58;;;;;;;38.87;22.27;;;4.90;63.80;;;;;;4902018;28;86938;-75
2021/01/08 08:36:26;;;;;;;33.77;20.87;;;4.80;64.50;;;;;;4886515;28;87005;-76
2021/01/08 08:39:09;;;;;;;27.60;17.37;;;4.70;65.10;;;;;;4869409;28;91495;-76
2021/01/08 08:41:37;;;;;;;26.80;17.23;;;4.70;64.60;;;;;;4886555;28;87017;-76
2021/01/08 08:44:14;;;;;;;29.23;17.03;;;5.00;64.40;;;;;;4886449;28;87296;-76
2021/01/08 08:46:55;;;;;;;26.93;16.07;;;5.40;63.00;;;;;;4869110;28;87374;-76
2021/01/08 08:49:28;;;;;;;24.10;15.17;;;5.80;62.10;;;;;;4885039;28;92170;-76
2021/01/08 08:51:55;;;;;;;28.17;17.23;;;6.10;60.50;;;;;;4901241;28;92422;-79
2021/01/08 08:54:23;;;;;;;22.77;16.00;;;6.40;58.70;;;;;;4905141;28;86730;-77
2021/01/08 08:56:52;;;;;;;31.73;16.27;;;6.60;58.30;;;;;;4902033;28;87091;-76
2021/01/08 08:59:39;;;;;;;37.10;22.17;;;6.90;57.60;;;;;;4902226;28;88725;-76
2021/01/08 09:02:09;;;;;;;26.50;16.30;;;7.20;56.50;;;;;;4900793;28;90873;-76
2021/01/08 09:04:36;;;;;;;22.77;15.77;;;7.30;56.30;;;;;;4901259;28;87055;-76
2021/01/08 09:07:18;;;;;;;28.80;17.13;;;7.50;55.10;;;;;;4903788;28;87739;-77
2021/01/08 09:09:46;;;;;;;25.37;16.07;;;7.60;54.90;;;;;;4902806;28;89879;-76
2021/01/08 09:12:26;;;;;;;24.95;16.42;;;7.90;53.70;;;;;;4904270;28;90819;-76
2021/01/08 09:15:01;;;;;;;21.37;16.00;;;8.10;53.70;;;;;;4904779;28;88602;-76
2021/01/08 09:17:33;;;;;;;24.48;16.30;;;8.50;53.00;;;;;;4873510;28;87842;-76
2021/01/08 09:20:00;;;;;;;;;;;8.80;52.10;;;;;;4905142;28;88729;-76
2021/01/08 09:22:29;;;;;;;18.08;12.40;;;8.90;50.20;;;;;;4890288;28;89321;-76
2021/01/08 09:24:59;;;;;;;22.40;14.27;;;8.60;51.40;;;;;;4888365;28;87429;-76
2021/01/08 09:27:25;;;;;;;34.58;19.35;;;8.60;51.90;;;;;;4904707;28;88053;-76
2021/01/08 09:29:51;;;;;;;30.15;16.23;;;8.80;50.80;;;;;;4903962;28;91599;-76
2021/01/08 09:32:33;;;;;;;24.90;16.05;;;9.00;50.40;;;;;;4889270;28;88259;-76
2021/01/08 09:35:02;;;;;;;34.92;21.45;;;9.00;50.00;;;;;;4905901;28;86949;-76
2021/01/08 09:37:36;;;;;;;34.92;20.65;;;9.00;50.30;;;;;;4906211;28;87071;-76
2021/01/08 09:40:08;;;;;;;22.98;15.35;;;9.00;50.50;;;;;;4903224;28;91358;-76
2021/01/08 09:42:37;;;;;;;31.88;19.70;;;9.00;49.20;;;;;;4889384;28;88947;-76
2021/01/08 09:45:16;;;;;;;26.83;18.70;;;8.90;50.20;;;;;;4904570;28;86941;-76
2021/01/08 09:47:42;;;;;;;24.25;16.42;;;8.90;50.70;;;;;;4905530;28;87346;-74
2021/01/08 09:50:08;;;;;;;31.73;21.85;;;9.00;51.00;;;;;;4906095;28;88121;-74
2021/01/08 09:52:34;;;;;;;39.90;17.73;;;9.10;49.70;;;;;;4889509;28;87494;-76
2021/01/08 09:55:00;;;;;;;50.03;24.45;;;9.10;50.40;;;;;;4889041;28;86879;-76
2021/01/08 09:57:27;;;;;;;26.60;16.48;;;9.20;50.90;;;;;;4905166;28;87831;-76
2021/01/08 09:59:54;;;;;;;25.33;15.48;;;9.20;49.90;;;;;;4905486;28;88332;-76
2021/01/08 10:02:38;;;;;;;26.08;17.40;;;9.20;49.30;;;;;;4906416;28;88222;-76
2021/01/08 10:05:23;;;;;;;45.75;19.55;;;8.80;49.70;;;;;;4904712;28;87810;-76
2021/01/08 10:07:49;;;;;;;33.55;17.00;;;8.50;50.20;;;;;;4904943;28;86946;-76
2021/01/08 10:10:27;;;;;;;38.27;18.33;;;8.20;51.10;;;;;;4902515;28;90057;-76
2021/01/08 10:12:55;;;;;;;29.67;16.17;;;8.10;51.20;;;;;;4903967;28;88368;-76
2021/01/08 10:15:35;;;;;;;27.53;16.13;;;7.90;51.60;;;;;;4903266;28;87110;-76
2021/01/08 10:18:21;;;;;;;45.13;20.70;;;7.70;51.70;;;;;;4903494;28;87437;-76
2021/01/08 10:20:53;;;;;;;44.40;22.50;;;7.50;52.60;;;;;;4905506;28;91252;-76
2021/01/08 10:23:25;;;;;;;51.40;23.52;;;7.40;53.00;;;;;;4909134;28;88166;-77
2021/01/08 10:25:52;;;;;;;52.50;25.13;;;7.40;53.00;;;;;;4902317;28;86887;-77
2021/01/08 10:28:25;;;;;;;37.70;19.67;;;7.30;52.80;;;;;;4904514;28;87128;-76
2021/01/08 10:30:53;;;;;;;27.57;16.53;;;7.20;53.40;;;;;;4885595;28;92488;-76
2021/01/08 10:33:24;;;;;;;29.60;17.57;;;7.20;53.00;;;;;;4902953;28;91928;-76
2021/01/08 10:35:58;;;;;;;33.70;19.83;;;7.00;53.30;;;;;;4886441;28;87029;-76
2021/01/08 10:38:24;;;;;;;29.23;18.73;;;6.90;54.60;;;;;;4902947;28;87539;-77
2021/01/08 10:40:50;;;;;;;23.37;16.40;;;6.90;54.70;;;;;;4903704;28;88141;-75
2021/01/08 10:43:16;;;;;;;22.90;16.87;;;6.80;54.70;;;;;;4886969;28;91365;-76
2021/01/08 10:45:42;;;;;;;25.63;18.07;;;6.80;55.50;;;;;;4904455;28;87287;-76
2021/01/08 10:48:08;;;;;;;21.67;14.37;;;6.70;56.20;;;;;;4902339;28;87791;-76
2021/01/08 10:50:35;;;;;;;25.87;14.37;;;6.60;55.40;;;;;;4902735;28;91817;-76
2021/01/08 10:53:02;;;;;;;28.00;14.87;;;6.70;55.10;;;;;;4885962;28;91205;-77
2021/01/08 10:55:28;;;;;;;22.90;14.27;;;6.60;55.20;;;;;;4886432;28;87931;-77
2021/01/08 10:57:57;;;;;;;26.13;15.37;;;6.60;55.10;;;;;;4886152;28;87039;-75
2021/01/08 11:00:23;;;;;;;23.27;16.17;;;6.50;55.80;;;;;;4886186;28;92121;-76
2021/01/08 11:02:49;;;;;;;24.83;17.10;;;6.50;55.60;;;;;;4886109;28;89618;-75
2021/01/08 11:05:15;;;;;;;30.27;17.40;;;6.60;56.20;;;;;;4871246;28;86960;-77
2021/01/08 11:07:41;;;;;;;26.27;16.57;;;6.60;56.00;;;;;;4904239;28;87733;-76
2021/01/08 11:10:07;;;;;;;26.47;17.47;;;6.60;56.00;;;;;;4885571;28;91832;-77
2021/01/08 11:12:34;;;;;;;22.87;15.33;;;6.70;55.60;;;;;;4872745;28;91426;-77
2021/01/08 11:15:01;;;;;;;24.17;16.00;;;6.70;55.30;;;;;;4905191;28;87539;-76
2021/01/08 11:17:27;;;;;;;25.00;16.33;;;6.80;55.00;;;;;;4902712;28;87386;-77
2021/01/08 11:19:53;;;;;;;23.53;14.93;;;6.90;55.40;;;;;;4869268;28;92575;-76
2021/01/08 11:22:19;;;;;;;27.73;15.23;;;7.00;54.30;;;;;;4886625;28;88349;-76
2021/01/08 11:24:44;;;;;;;29.10;15.63;;;7.10;54.30;;;;;;4886654;28;87370;-76
2021/01/08 11:27:10;;;;;;;26.97;15.57;;;7.00;54.50;;;;;;4885659;28;87713;-77
2021/01/08 11:29:36;;;;;;;25.20;15.30;;;7.10;54.90;;;;;;4886249;28;87887;-76
2021/01/08 11:32:06;;;;;;;24.80;17.13;;;7.10;54.80;;;;;;4885657;28;87874;-76
2021/01/08 11:34:32;;;;;;;26.43;15.67;;;7.10;55.00;;;;;;4870430;28;86822;-76
2021/01/08 11:36:58;;;;;;;25.47;15.90;;;7.10;54.60;;;;;;4901689;28;87522;-76
2021/01/08 11:39:24;;;;;;;21.57;14.93;;;6.90;55.10;;;;;;4870583;28;91133;-77
2021/01/08 11:41:54;;;;;;;24.70;15.77;;;6.80;55.90;;;;;;4902939;28;88022;-76
2021/01/08 11:44:20;;;;;;;25.83;14.03;;;6.60;56.20;;;;;;4902915;28;88070;-76
2021/01/08 11:46:48;;;;;;;21.37;14.00;;;6.60;56.00;;;;;;4902237;28;86932;-76
2021/01/08 11:49:15;;;;;;;22.77;14.60;;;6.60;56.70;;;;;;4901129;28;91116;-77
2021/01/08 11:51:40;;;;;;;28.17;16.97;;;6.70;56.60;;;;;;4902638;28;87393;-77
2021/01/08 11:54:06;;;;;;;30.10;18.57;;;6.60;56.60;;;;;;4885147;28;86947;-76
2021/01/08 11:56:32;;;;;;;33.53;19.03;;;6.50;57.00;;;;;;4870185;28;87681;-77
2021/01/08 11:58:58;;;;;;;35.30;18.13;;;6.50;57.70;;;;;;4902536;28;88159;-76
2021/01/08 12:01:25;;;;;;;24.13;16.50;;;6.40;57.80;;;;;;4886045;28;91397;-76
2021/01/08 12:03:51;;;;;;;30.47;17.37;;;6.40;57.90;;;;;;4885751;28;87039;-76
2021/01/08 12:06:17;;;;;;;26.43;16.17;;;6.50;58.10;;;;;;4869912;28;88130;-76
2021/01/08 12:08:43;;;;;;;21.07;13.90;;;6.60;58.00;;;;;;4902710;28;88806;-76
2021/01/08 12:11:13;;;;;;;28.60;15.30;;;6.60;58.50;;;;;;4884353;28;92592;-76
2021/01/08 12:13:41;;;;;;;19.07;12.83;;;6.70;58.20;;;;;;4901807;28;86941;-76
2021/01/08 12:16:07;;;;;;;18.47;13.13;;;6.70;58.20;;;;;;4902256;28;87144;-76
2021/01/08 12:18:32;;;;;;;16.63;11.87;;;6.60;58.30;;;;;;4885909;28;88257;-76
2021/01/08 12:20:58;;;;;;;19.67;11.67;;;6.60;58.70;;;;;;4869008;28;90767;-76
2021/01/08 12:23:24;;;;;;;19.80;11.97;;;6.60;59.00;;;;;;4869838;28;86797;-76
2021/01/08 12:25:50;;;;;;;15.97;11.80;;;6.60;58.90;;;;;;4869335;28;87431;-76
2021/01/08 12:28:15;;;;;;;15.47;10.57;;;6.60;59.40;;;;;;4868831;28;90044;-77
2021/01/08 12:30:44;;;;;;;15.13;10.57;;;6.50;59.60;;;;;;4901457;28;90614;-76
2021/01/08 12:33:10;;;;;;;12.47;10.27;;;6.40;60.00;;;;;;4900652;28;88415;-76
2021/01/08 12:35:35;;;;;;;15.03;10.83;;;6.30;60.20;;;;;;4885551;28;87309;-76
2021/01/08 12:38:01;;;;;;;15.43;10.63;;;6.20;60.70;;;;;;4885053;28;87838;-76
2021/01/08 12:40:27;;;;;;;13.17;10.37;;;6.20;61.20;;;;;;4886498;28;90831;-76
2021/01/08 12:42:54;;;;;;;16.30;11.00;;;6.10;61.50;;;;;;4889057;28;86827;-77
2021/01/08 12:45:21;;;;;;;12.43;10.17;;;6.00;61.70;;;;;;4906369;28;86697;-77